Time;durP1;ratioP1;P1;durP2;ratioP2;P2;SDS_P1;SDS_P2;PMS_P1;PMS_P2;Temp;Humidity;BMP_temperature;BMP_pressure;BME280_temperature;BME280_humidity;BME280_pressure;Samples;Min_cycle;Max_cycle;Signal;HPM_P1;HPM_P2
2022/01/12 00:01:52;;;;;;;;;66.25;44.50;;;;;5.43;61.17;103128.47;4929226;28;45493;-66
2022/01/12 00:04:17;;;;;;;;;50.25;42.50;;;;;5.55;61.31;103142.78;4941147;28;46655;-65
2022/01/12 00:06:42;;;;;;;;;61.75;41.50;;;;;5.58;61.11;103147.44;4941700;28;45421;-64
2022/01/12 00:09:08;;;;;;;;;63.50;39.00;;;;;5.24;60.70;103088.88;4946421;28;45424;-65
2022/01/12 00:11:35;;;;;;;;;55.50;42.50;;;;;5.56;61.20;103138.41;4944912;28;44980;-64
2022/01/12 00:14:00;;;;;;;;;62.50;45.25;;;;;5.55;60.70;103140.13;4941747;28;45651;-64
2022/01/12 00:16:25;;;;;;;;;63.25;42.25;;;;;5.46;61.56;103131.38;4936293;28;45121;-68
2022/01/12 00:18:51;;;;;;;;;62.50;45.00;;;;;5.53;61.23;103133.78;4939336;28;45366;-66
2022/01/12 00:21:16;;;;;;;;;60.75;43.00;;;;;5.03;60.92;103057.06;4940089;28;45261;-65
2022/01/12 00:23:42;;;;;;;;;57.25;43.00;;;;;5.51;61.35;103140.66;4939255;28;45684;-65
2022/01/12 00:26:12;;;;;;;;;64.00;45.50;;;;;5.33;60.88;103108.22;4937362;28;45638;-65
2022/01/12 00:34:22;;;;;;;;;60.50;40.50;;;;;5.49;60.82;103152.84;4898241;28;45595;-65
2022/01/12 00:36:47;;;;;;;;;52.75;41.25;;;;;5.53;60.86;103158.56;4929955;28;45354;-66
2022/01/12 00:39:14;;;;;;;;;64.25;47.75;;;;;5.49;60.68;103153.81;4948990;28;45293;-64
2022/01/12 00:41:41;;;;;;;;;61.25;43.75;;;;;5.26;61.24;103117.38;4945574;28;45047;-70
2022/01/12 00:44:09;;;;;;;;;59.25;42.75;;;;;5.20;61.29;103106.25;4936826;28;45526;-62
2022/01/12 00:46:36;;;;;;;;;53.25;39.75;;;;;5.41;61.26;103157.53;4936410;28;45485;-68
2022/01/12 00:49:02;;;;;;;;;58.50;42.25;;;;;5.35;60.79;103157.00;4941400;28;45012;-63
2022/01/12 00:51:33;;;;;;;;;60.00;42.75;;;;;5.34;61.23;103160.41;4940934;28;45477;-64
2022/01/12 00:54:00;;;;;;;;;61.75;46.75;;;;;5.36;61.71;103156.19;4919700;28;47610;-67
2022/01/12 00:56:26;;;;;;;;;52.25;42.50;;;;;5.29;61.88;103167.06;4929265;28;46213;-65
2022/01/12 00:58:52;;;;;;;;;56.50;42.00;;;;;5.34;61.11;103177.25;4942936;28;45201;-67
2022/01/12 01:01:19;;;;;;;;;64.75;44.25;;;;;5.32;61.51;103180.56;4938781;28;45215;-65
2022/01/12 01:03:46;;;;;;;;;50.25;38.75;;;;;5.20;61.28;103169.84;4931220;28;45672;-73
2022/01/12 01:06:12;;;;;;;;;61.25;43.00;;;;;5.28;62.20;103187.34;4948787;28;45579;-74
2022/01/12 01:08:38;;;;;;;;;59.00;41.00;;;;;5.31;61.78;103202.56;4930958;28;45000;-64
2022/01/12 01:11:05;;;;;;;;;63.25;38.00;;;;;5.21;61.69;103187.56;4938747;28;45473;-65
2022/01/12 01:13:35;;;;;;;;;68.00;43.50;;;;;5.24;62.10;103185.19;4943897;28;45400;-70
2022/01/12 01:16:24;;;;;;;;;55.75;40.50;;;;;5.31;61.77;103189.31;4933654;28;45214;-66
2022/01/12 01:27:01;;;;;;;;;54.25;40.75;;;;;5.24;62.24;103198.44;4944584;28;44937;-64
2022/01/12 01:29:27;;;;;;;;;48.75;37.25;;;;;5.37;61.61;103220.75;4950484;28;45137;-65
2022/01/12 01:31:53;;;;;;;;;54.50;40.00;;;;;5.39;61.76;103224.44;4948623;28;45275;-69
2022/01/12 01:34:18;;;;;;;;;55.75;43.50;;;;;5.37;61.63;103226.03;4943231;28;45653;-67
2022/01/12 01:36:46;;;;;;;;;48.50;43.00;;;;;5.37;61.71;103231.34;4933433;28;45112;-64
2022/01/12 01:39:16;;;;;;;;;55.00;39.50;;;;;5.33;61.90;103231.06;4939656;28;45214;-64
2022/01/12 01:41:46;;;;;;;;;56.25;44.00;;;;;5.33;61.73;103232.81;4934113;28;45322;-64
2022/01/12 01:54:50;;;;;;;;;49.25;41.50;;;;;5.15;61.67;103187.97;4943694;28;45482;-66
2022/01/12 01:57:15;;;;;;;;;56.00;42.50;;;;;5.44;61.55;103229.34;4949404;28;45107;-67
2022/01/12 01:59:40;;;;;;;;;59.25;44.00;;;;;5.43;61.34;103237.16;4927141;28;45277;-64
2022/01/12 02:02:06;;;;;;;;;58.25;43.75;;;;;5.44;61.54;103237.28;4946590;28;45070;-64
2022/01/12 02:04:32;;;;;;;;;51.75;39.75;;;;;5.44;61.46;103234.66;4948598;28;45066;-64
2022/01/12 02:06:58;;;;;;;;;55.25;39.75;;;;;5.51;61.39;103238.75;4938035;28;45240;-67
2022/01/12 02:09:25;;;;;;;;;57.25;40.50;;;;;5.50;61.97;103228.97;4933385;28;45357;-64
2022/01/12 02:11:53;;;;;;;;;62.75;44.00;;;;;5.41;61.34;103229.09;4946036;28;45130;-65
2022/01/12 02:14:20;;;;;;;;;59.00;42.50;;;;;5.20;61.42;103192.75;4944446;28;46581;-64
2022/01/12 02:16:58;;;;;;;;;61.25;43.50;;;;;5.41;61.31;103229.09;4929062;28;45484;-65
2022/01/12 02:36:13;;;;;;;;;59.00;44.25;;;;;5.39;61.84;103217.41;4949117;28;45429;-65
2022/01/12 02:41:23;;;;;;;;;61.00;44.25;;;;;5.28;62.33;103211.19;4949914;28;44990;-66
2022/01/12 02:54:43;;;;;;;;;56.25;38.00;;;;;5.30;61.77;103175.13;4947721;28;45009;-67
2022/01/12 02:57:08;;;;;;;;;49.75;39.75;;;;;5.39;61.63;103182.94;4948587;28;45890;-64
2022/01/12 02:59:35;;;;;;;;;62.25;43.50;;;;;5.40;61.84;103179.53;4939699;28;46325;-64
2022/01/12 03:04:29;;;;;;;;;59.00;39.50;;;;;5.36;61.87;103182.69;4940582;28;45363;-64
2022/01/12 03:07:04;;;;;;;;;55.75;41.00;;;;;5.31;62.22;103181.34;4946623;28;45564;-69
2022/01/12 03:09:29;;;;;;;;;56.00;44.25;;;;;5.20;62.27;103180.44;4945535;28;45288;-63
2022/01/12 03:11:54;;;;;;;;;66.50;45.75;;;;;5.27;61.79;103196.06;4939491;28;45518;-65
2022/01/12 03:14:20;;;;;;;;;61.25;40.25;;;;;5.28;62.62;103204.94;4927537;28;45379;-66
2022/01/12 03:16:45;;;;;;;;;51.50;40.50;;;;;5.24;62.78;103205.47;4920292;28;45376;-63
2022/01/12 03:19:10;;;;;;;;;55.50;39.50;;;;;5.31;62.70;103214.13;4944905;28;45596;-67
2022/01/12 03:21:36;;;;;;;;;66.75;43.25;;;;;5.36;62.56;103225.09;4947656;28;45118;-64
2022/01/12 03:24:02;;;;;;;;;54.00;42.50;;;;;5.39;62.41;103220.06;4934943;28;45238;-64
2022/01/12 03:26:29;;;;;;;;;51.75;40.75;;;;;5.28;62.13;103213.84;4930929;28;46009;-68
2022/01/12 03:28:56;;;;;;;;;61.75;39.75;;;;;5.39;62.55;103224.44;4932156;28;45063;-64
2022/01/12 03:31:26;;;;;;;;;59.50;41.00;;;;;5.41;62.33;103218.50;4946770;28;45149;-64
2022/01/12 03:33:57;;;;;;;;;59.75;40.00;;;;;5.43;61.74;103221.25;4944984;28;45204;-64
2022/01/12 03:38:48;;;;;;;;;45.75;38.75;;;;;5.25;62.15;103199.41;4946210;28;45148;-71
2022/01/12 03:41:14;;;;;;;;;56.00;41.00;;;;;4.99;62.25;103148.59;4948699;28;45273;-64
2022/01/12 03:43:40;;;;;;;;;52.00;38.00;;;;;5.15;62.12;103177.38;4949995;28;45245;-66
2022/01/12 03:46:06;;;;;;;;;53.25;38.00;;;;;5.11;62.17;103169.03;4946080;28;45316;-64
2022/01/12 03:48:31;;;;;;;;;41.50;37.25;;;;;4.98;62.29;103124.63;4940104;28;45149;-64
2022/01/12 03:50:58;;;;;;;;;54.25;39.50;;;;;5.46;62.31;103211.88;4939783;28;45428;-65
2022/01/12 03:53:24;;;;;;;;;55.25;42.50;;;;;5.25;62.13;103184.41;4934068;28;45038;-63
2022/01/12 03:55:49;;;;;;;;;57.25;40.00;;;;;5.54;61.68;103232.03;4947452;28;46362;-65
2022/01/12 03:58:15;;;;;;;;;58.00;39.75;;;;;5.56;62.04;103229.50;4927727;28;45407;-67
2022/01/12 04:00:40;;;;;;;;;55.00;37.25;;;;;5.50;61.39;103228.97;4925562;28;45398;-64
2022/01/12 04:03:07;;;;;;;;;46.25;38.00;;;;;5.58;61.99;103250.84;4918749;28;45473;-64
2022/01/12 04:08:19;;;;;;;;;55.50;40.00;;;;;5.56;62.18;103258.69;4922501;28;45210;-64
2022/01/12 04:10:44;;;;;;;;;56.75;39.50;;;;;5.48;61.87;103250.03;4920865;28;45394;-64
2022/01/12 04:13:10;;;;;;;;;51.50;40.00;;;;;5.53;61.87;103269.00;4925399;28;45480;-65
2022/01/12 04:15:35;;;;;;;;;57.50;41.75;;;;;5.52;61.75;103275.09;4932903;28;45996;-63
2022/01/12 04:18:01;;;;;;;;;50.75;38.25;;;;;5.45;62.12;103273.63;4931727;28;45335;-65
2022/01/12 04:20:26;;;;;;;;;58.00;38.00;;;;;5.23;62.05;103244.31;4929179;28;45928;-66
2022/01/12 04:25:35;;;;;;;;;58.25;37.25;;;;;5.39;61.78;103282.78;4939625;28;45462;-63
2022/01/12 04:28:01;;;;;;;;;58.50;36.00;;;;;5.27;62.61;103265.00;4943208;28;45405;-63
2022/01/12 04:30:27;;;;;;;;;44.50;39.25;;;;;5.18;62.80;103256.25;4945865;28;45063;-76
2022/01/12 04:32:52;;;;;;;;;59.25;38.50;;;;;5.21;62.69;103267.09;4942241;28;45306;-63
2022/01/12 04:35:23;;;;;;;;;57.25;38.75;;;;;5.34;62.06;103291.22;4929970;28;46464;-64
2022/01/12 04:37:48;;;;;;;;;59.50;42.75;;;;;5.07;62.63;103259.66;4933381;28;45525;-64
2022/01/12 04:40:14;;;;;;;;;49.50;39.00;;;;;5.30;61.90;103301.44;4922831;28;45541;-64
2022/01/12 04:42:39;;;;;;;;;49.50;39.25;;;;;5.25;62.54;103306.34;4935004;28;45458;-62
2022/01/12 04:48:31;;;;;;;;;48.75;37.75;;;;;5.24;62.27;103315.06;4881136;28;45342;-64
2022/01/12 04:50:54;;;;;;;;;50.50;34.00;;;;;5.25;62.77;103323.97;4945170;28;45195;-63
2022/01/12 04:53:20;;;;;;;;;50.25;37.00;;;;;5.28;62.55;103308.31;4935914;28;45046;-62
2022/01/12 04:55:48;;;;;;;;;47.75;37.00;;;;;5.28;62.17;103306.63;4936854;28;45687;-71
2022/01/12 04:58:14;;;;;;;;;48.00;38.50;;;;;5.30;63.19;103302.38;4929016;28;44945;-64
2022/01/12 05:00:41;;;;;;;;;38.25;32.25;;;;;5.31;62.41;103303.28;4941189;28;45237;-69
2022/01/12 05:08:50;;;;;;;;;56.75;39.50;;;;;4.83;62.98;103240.75;4939390;28;45004;-64
2022/01/12 05:14:00;;;;;;;;;59.50;40.75;;;;;4.87;62.73;103260.53;4939600;28;44950;-64
2022/01/12 05:16:26;;;;;;;;;59.00;43.25;;;;;5.26;62.13;103345.31;4938439;28;45291;-63
2022/01/12 05:18:53;;;;;;;;;60.00;40.50;;;;;5.12;63.13;103325.50;4937235;28;45154;-64
2022/01/12 05:21:20;;;;;;;;;60.00;41.75;;;;;5.20;62.71;103338.50;4938919;28;45571;-63
2022/01/12 05:23:46;;;;;;;;;47.50;36.25;;;;;5.24;62.57;103344.22;4952739;28;45380;-63
2022/01/12 05:26:13;;;;;;;;;59.50;41.25;;;;;5.25;62.52;103324.88;4945705;28;45675;-68
2022/01/12 05:28:38;;;;;;;;;53.00;35.75;;;;;5.22;62.47;103315.75;4953945;28;45327;-68
2022/01/12 05:31:06;;;;;;;;;54.00;38.75;;;;;5.25;61.92;103313.38;4948002;28;44955;-65
2022/01/12 05:33:32;;;;;;;;;47.25;37.25;;;;;5.03;62.22;103265.44;4933979;28;45293;-64
2022/01/12 05:35:58;;;;;;;;;42.75;38.00;;;;;5.20;61.82;103293.44;4935669;28;46119;-66
2022/01/12 05:38:25;;;;;;;;;61.75;41.00;;;;;5.19;62.47;103300.47;4920245;28;45095;-64
2022/01/12 05:40:57;;;;;;;;;38.25;32.00;;;;;5.07;62.17;103278.19;4932258;28;45421;-66
2022/01/12 05:43:28;;;;;;;;;55.50;38.25;;;;;5.15;62.13;103301.94;4935260;28;45164;-62
2022/01/12 05:45:55;;;;;;;;;54.25;39.00;;;;;4.85;62.43;103259.44;4939013;28;45386;-65
2022/01/12 05:50:49;;;;;;;;;61.25;38.50;;;;;4.74;62.67;103246.16;4950615;28;45165;-63
2022/01/12 05:53:16;;;;;;;;;43.75;31.75;;;;;5.11;62.29;103312.13;4939452;28;45277;-65
2022/01/12 05:55:41;;;;;;;;;55.50;40.75;;;;;5.08;62.99;103304.84;4936739;28;45885;-63
2022/01/12 05:58:07;;;;;;;;;62.25;39.75;;;;;5.09;62.51;103311.97;4935651;28;45163;-65
2022/01/12 06:00:32;;;;;;;;;52.00;37.75;;;;;4.87;63.09;103277.34;4938156;28;45596;-65
2022/01/12 06:02:58;;;;;;;;;51.75;39.25;;;;;5.08;62.85;103326.03;4948985;28;45079;-63
2022/01/12 06:05:24;;;;;;;;;47.00;37.75;;;;;5.04;62.75;103334.47;4947240;28;45725;-63
2022/01/12 06:07:51;;;;;;;;;60.75;41.00;;;;;5.02;63.33;103317.53;4948482;28;45400;-63
2022/01/12 06:10:18;;;;;;;;;55.50;39.75;;;;;5.05;62.59;103322.16;4951640;28;44996;-64
2022/01/12 06:12:44;;;;;;;;;60.25;45.50;;;;;5.07;62.97;103321.50;4950404;28;45255;-65
2022/01/12 06:15:10;;;;;;;;;47.75;42.50;;;;;5.04;63.38;103308.00;4940990;28;46708;-63
2022/01/12 06:17:37;;;;;;;;;45.75;37.75;;;;;5.14;62.53;103317.69;4935005;28;45316;-69
2022/01/12 06:20:06;;;;;;;;;50.00;38.75;;;;;5.14;62.64;103315.97;4932488;28;45414;-63
2022/01/12 06:22:32;;;;;;;;;42.00;37.00;;;;;5.08;62.70;103280.03;4934389;28;45577;-65
2022/01/12 06:24:59;;;;;;;;;60.75;41.00;;;;;5.31;63.16;103327.16;4930165;28;46073;-72
2022/01/12 06:27:29;;;;;;;;;61.75;45.00;;;;;5.33;63.01;103320.28;4935063;28;45401;-63
2022/01/12 06:32:20;;;;;;;;;57.00;39.00;;;;;5.24;62.40;103315.06;4935410;28;45397;-65
2022/01/12 06:34:46;;;;;;;;;57.25;39.50;;;;;5.28;62.78;103322.53;4919084;28;46278;-65
2022/01/12 06:37:11;;;;;;;;;57.25;37.75;;;;;5.32;62.46;103324.63;4923095;28;45528;-64
2022/01/12 06:39:38;;;;;;;;;48.75;38.50;;;;;5.33;62.95;103325.59;4924159;28;45275;-65
2022/01/12 06:42:04;;;;;;;;;50.75;38.75;;;;;5.27;63.07;103325.03;4929215;28;45615;-67
2022/01/12 06:44:29;;;;;;;;;39.50;32.50;;;;;5.24;63.12;103330.06;4943379;28;45373;-62
2022/01/12 06:47:02;;;;;;;;;48.00;37.50;;;;;5.23;63.02;103318.53;4938431;28;45258;-64
2022/01/12 06:49:27;;;;;;;;;55.75;38.00;;;;;5.19;62.90;103326.06;4940550;28;45293;-63
2022/01/12 06:51:53;;;;;;;;;50.75;37.00;;;;;5.23;62.89;103328.19;4938891;28;45314;-63
2022/01/12 06:54:18;;;;;;;;;46.00;35.75;;;;;5.34;63.25;103332.72;4944872;28;45330;-66
2022/01/12 06:56:44;;;;;;;;;59.25;39.25;;;;;5.30;62.53;103347.44;4930774;28;45528;-63
2022/01/12 06:59:09;;;;;;;;;53.25;40.75;;;;;5.34;62.77;103345.97;4930732;28;45057;-62
2022/01/12 07:01:34;;;;;;;;;39.75;36.75;;;;;5.08;62.94;103291.59;4933824;28;45278;-65
2022/01/12 07:04:00;;;;;;;;;54.25;38.50;;;;;5.44;62.33;103338.03;4930082;28;46292;-70
2022/01/12 07:06:25;;;;;;;;;56.75;39.00;;;;;5.44;62.62;103334.47;4932999;28;45288;-67
2022/01/12 07:08:51;;;;;;;;;60.75;43.75;;;;;5.47;61.97;103334.75;4935630;28;45130;-67
2022/01/12 07:11:16;;;;;;;;;39.25;31.75;;;;;5.46;62.81;103327.56;4945772;28;45062;-65
2022/01/12 07:13:42;;;;;;;;;42.00;34.50;;;;;4.93;62.18;103240.81;4947811;28;45757;-68
2022/01/12 07:16:07;;;;;;;;;55.00;36.75;;;;;5.46;62.26;103324.94;4951149;28;44968;-63
2022/01/12 07:18:33;;;;;;;;;47.50;34.50;;;;;4.89;61.91;103229.78;4947821;28;45082;-65
2022/01/12 07:20:59;;;;;;;;;44.50;36.00;;;;;5.45;62.62;103325.75;4934981;28;45205;-64
2022/01/12 07:23:25;;;;;;;;;55.75;39.75;;;;;5.18;62.64;103274.78;4930265;28;45275;-63
2022/01/12 07:25:51;;;;;;;;;68.00;45.25;;;;;5.16;62.78;103282.59;4932367;28;45102;-70
2022/01/12 07:28:17;;;;;;;;;61.75;44.00;;;;;5.42;63.34;103318.44;4931280;28;45045;-68
2022/01/12 07:30:42;;;;;;;;;37.75;34.75;;;;;5.43;62.39;103322.00;4949065;28;45222;-68
2022/01/12 07:33:08;;;;;;;;;42.50;37.00;;;;;5.40;62.93;103321.75;4935349;28;46231;-69
2022/01/12 07:35:33;;;;;;;;;45.00;36.00;;;;;5.32;62.91;103314.03;4950122;28;45191;-71
2022/01/12 07:37:59;;;;;;;;;45.25;35.25;;;;;5.08;62.52;103283.63;4945387;28;45336;-71
2022/01/12 07:40:24;;;;;;;;;48.00;26.75;;;;;5.44;62.50;103346.00;4931220;28;45202;-70
2022/01/12 07:42:51;;;;;;;;;46.75;38.50;;;;;5.34;62.86;103330.06;4931461;28;45839;-73
2022/01/12 07:45:17;;;;;;;;;56.25;40.25;;;;;5.41;62.66;103350.09;4934568;28;45161;-71
2022/01/12 07:47:43;;;;;;;;;57.75;40.25;;;;;5.47;62.08;103361.25;4939172;28;45084;-73
2022/01/12 07:50:09;;;;;;;;;61.25;43.25;;;;;5.10;62.85;103294.38;4935156;28;45507;-71
2022/01/12 07:52:35;;;;;;;;;55.25;41.75;;;;;5.34;62.81;103338.03;4927911;28;47089;-72
2022/01/12 07:55:01;;;;;;;;;58.25;39.00;;;;;5.30;62.37;103349.16;4925691;28;45377;-72
2022/01/12 07:57:28;;;;;;;;;42.00;27.50;;;;;5.51;62.16;103382.91;4907910;28;45547;-71
2022/01/12 07:59:53;;;;;;;;;47.50;38.00;;;;;5.23;62.68;103338.78;4923147;28;45377;-73
2022/01/12 08:02:19;;;;;;;;;47.50;37.00;;;;;5.39;62.69;103375.56;4927018;28;46334;-73
2022/01/12 08:04:44;;;;;;;;;50.00;36.25;;;;;5.33;62.79;103383.91;4910966;28;45518;-72
2022/01/12 08:07:11;;;;;;;;;45.50;39.00;;;;;5.46;62.84;103392.16;4923215;28;45007;-71
2022/01/12 08:09:43;;;;;;;;;48.75;38.00;;;;;5.49;62.75;103396.78;4927618;28;47972;-71
2022/01/12 08:12:10;;;;;;;;;62.50;44.50;;;;;5.48;62.81;103395.88;4941206;28;45942;-73
2022/01/12 08:14:36;;;;;;;;;44.50;37.25;;;;;5.31;62.93;103382.81;4920566;28;45512;-72
2022/01/12 08:17:02;;;;;;;;;57.00;41.00;;;;;5.51;63.00;103414.72;4928294;28;45336;-72
2022/01/12 08:19:28;;;;;;;;;59.00;40.00;;;;;5.39;62.47;103384.44;4930165;28;45616;-70
2022/01/12 08:21:54;;;;;;;;;61.00;38.25;;;;;5.64;63.21;103426.41;4932587;28;47098;-72
2022/01/12 08:24:20;;;;;;;;;62.25;40.00;;;;;5.72;62.41;103434.28;4928936;28;45493;-73
2022/01/12 08:26:45;;;;;;;;;54.25;38.75;;;;;5.57;62.13;103401.06;4930082;28;45414;-71
2022/01/12 08:29:14;;;;;;;;;46.00;39.25;;;;;5.52;62.58;103408.59;4926919;28;45526;-71
2022/01/12 08:31:44;;;;;;;;;57.25;40.00;;;;;5.40;62.15;103396.00;4924900;28;47283;-70
2022/01/12 08:34:10;;;;;;;;;54.00;42.50;;;;;5.69;62.67;103447.25;4933814;28;45438;-74
2022/01/12 08:36:37;;;;;;;;;47.75;36.50;;;;;5.77;62.36;103447.00;4932337;28;45149;-70
2022/01/12 08:39:07;;;;;;;;;50.75;38.75;;;;;5.77;62.12;103447.00;4937448;28;45525;-75
2022/01/12 08:41:32;;;;;;;;;69.75;48.25;;;;;5.73;62.30;103441.41;4936088;28;45774;-72
2022/01/12 08:43:58;;;;;;;;;65.25;45.50;;;;;5.82;62.62;103461.59;4929887;28;45437;-71
2022/01/12 08:46:23;;;;;;;;;58.00;43.25;;;;;5.64;62.22;103434.38;4935763;28;45378;-71
2022/01/12 08:48:48;;;;;;;;;63.00;44.75;;;;;5.71;62.29;103432.41;4925882;28;45437;-72
2022/01/12 08:51:14;;;;;;;;;62.25;42.50;;;;;5.58;62.26;103392.31;4929647;28;45581;-72
2022/01/12 08:53:39;;;;;;;;;61.00;43.75;;;;;5.89;62.07;103441.09;4926914;28;45375;-71
2022/01/12 08:56:04;;;;;;;;;63.25;46.00;;;;;6.00;62.35;103457.97;4925668;28;45431;-74
2022/01/12 08:58:30;;;;;;;;;59.50;44.25;;;;;6.05;62.16;103448.69;4929066;28;45632;-72
2022/01/12 09:01:00;;;;;;;;;82.75;60.75;;;;;6.15;61.82;103462.78;4928207;28;46112;-73
2022/01/12 09:03:25;;;;;;;;;58.75;42.00;;;;;6.26;61.95;103464.66;4935850;28;45546;-71
2022/01/12 09:05:50;;;;;;;;;71.25;50.25;;;;;6.34;61.38;103468.00;4928033;28;46099;-62
2022/01/12 09:08:16;;;;;;;;;72.00;52.50;;;;;6.38;61.24;103473.69;4923600;28;45388;-62
2022/01/12 09:10:41;;;;;;;;;79.75;52.50;;;;;6.39;61.70;103470.25;4927848;28;45544;-64
2022/01/12 09:13:06;;;;;;;;;63.75;48.25;;;;;6.39;60.89;103466.66;4930016;28;45516;-61
2022/01/12 09:15:32;;;;;;;;;64.50;48.75;;;;;6.40;60.75;103476.47;4938742;28;45351;-66
2022/01/12 09:17:57;;;;;;;;;69.00;45.00;;;;;6.35;60.71;103470.78;4935382;28;45425;-61
2022/01/12 09:20:24;;;;;;;;;72.50;47.50;;;;;6.49;60.82;103487.91;4928501;28;45681;-62
2022/01/12 09:22:50;;;;;;;;;67.75;48.00;;;;;6.50;60.74;103486.16;4934692;28;45378;-63
2022/01/12 09:25:16;;;;;;;;;69.50;50.75;;;;;6.55;60.53;103504.38;4931263;28;45777;-64
2022/01/12 09:27:42;;;;;;;;;68.50;49.75;;;;;6.43;61.10;103487.38;4949032;28;45382;-63
2022/01/12 09:30:10;;;;;;;;;67.50;48.25;;;;;6.55;60.81;103512.34;4925169;28;46248;-63
2022/01/12 09:32:36;;;;;;;;;64.50;49.75;;;;;6.46;60.46;103493.88;4924674;28;45627;-63
2022/01/12 09:35:03;;;;;;;;;62.75;49.00;;;;;6.67;60.58;103525.78;4932469;28;46034;-63
2022/01/12 09:37:29;;;;;;;;;70.00;51.25;;;;;6.71;59.94;103533.19;4932433;28;45523;-62
2022/01/12 09:39:54;;;;;;;;;64.25;48.75;;;;;6.64;60.31;103526.41;4915523;28;46904;-62
2022/01/12 09:42:20;;;;;;;;;57.00;40.25;;;;;6.73;60.31;103541.31;4926327;28;45719;-64
2022/01/12 09:44:47;;;;;;;;;53.25;41.75;;;;;6.75;59.94;103547.69;4927991;28;45472;-62
2022/01/12 09:47:15;;;;;;;;;67.00;49.00;;;;;6.83;59.76;103541.34;4929755;28;45523;-64
2022/01/12 09:49:44;;;;;;;;;58.50;44.25;;;;;6.58;59.30;103498.41;4932476;28;45461;-61
2022/01/12 09:52:11;;;;;;;;;63.75;47.00;;;;;6.85;59.39;103550.34;4922403;28;45427;-63
2022/01/12 09:54:38;;;;;;;;;60.25;43.25;;;;;6.83;59.01;103544.91;4931032;28;45502;-63
2022/01/12 09:57:04;;;;;;;;;61.00;49.00;;;;;6.87;59.39;103543.44;4934341;28;45397;-64
2022/01/12 09:59:30;;;;;;;;;68.00;45.25;;;;;6.87;59.01;103550.50;4933485;28;46293;-65
2022/01/12 10:01:56;;;;;;;;;60.00;45.25;;;;;6.95;59.23;103549.44;4930640;28;46271;-64
2022/01/12 10:04:24;;;;;;;;;63.25;45.00;;;;;6.97;59.11;103548.75;4930765;28;45442;-64
2022/01/12 10:06:56;;;;;;;;;64.00;45.50;;;;;7.00;58.82;103540.13;4928061;28;45384;-64
2022/01/12 10:09:38;;;;;;;;;68.50;55.25;;;;;7.04;58.88;103541.31;4926824;28;46267;-63
2022/01/12 10:12:13;;;;;;;;;69.00;49.75;;;;;6.97;59.14;103529.22;4936006;28;45575;-62
2022/01/12 10:14:38;;;;;;;;;61.50;48.25;;;;;7.06;58.70;103538.00;4936441;28;45511;-63
2022/01/12 10:17:04;;;;;;;;;60.75;45.50;;;;;7.09;58.95;103538.22;4941016;28;45169;-62
2022/01/12 10:19:32;;;;;;;;;66.50;49.00;;;;;7.10;58.87;103542.75;4947964;28;45040;-64
2022/01/12 10:21:59;;;;;;;;;57.25;44.00;;;;;7.10;58.67;103545.41;4930162;28;45482;-62
2022/01/12 10:24:27;;;;;;;;;58.50;44.25;;;;;7.17;58.69;103546.88;4919874;28;45570;-62
2022/01/12 10:26:55;;;;;;;;;62.75;49.25;;;;;7.07;58.34;103525.63;4930410;28;45891;-63
2022/01/12 10:29:27;;;;;;;;;64.00;47.75;;;;;7.24;58.35;103530.63;4922878;28;45533;-64
2022/01/12 10:32:04;;;;;;;;;65.00;47.75;;;;;7.34;58.60;103542.97;4915048;28;45673;-64
2022/01/12 10:34:39;;;;;;;;;61.50;43.25;;;;;7.38;58.08;103543.38;4921380;28;45552;-61
2022/01/12 10:37:08;;;;;;;;;60.75;47.00;;;;;7.44;58.13;103542.03;4937096;28;45523;-60
2022/01/12 10:39:33;;;;;;;;;66.00;50.50;;;;;7.42;57.86;103536.56;4933622;28;46161;-63
2022/01/12 10:42:03;;;;;;;;;66.75;51.50;;;;;7.35;57.60;103523.56;4894100;28;1127434;-63
2022/01/12 10:44:36;;;;;;;;;62.75;48.25;;;;;7.55;57.43;103543.84;4924697;28;45485;-63
2022/01/12 10:47:10;;;;;;;;;71.75;49.25;;;;;7.61;57.98;103536.41;4931208;28;45546;-60
2022/01/12 10:49:37;;;;;;;;;60.00;46.50;;;;;7.59;57.66;103540.66;4937731;28;45509;-62
2022/01/12 10:52:06;;;;;;;;;62.50;45.50;;;;;7.59;57.52;103540.66;4922358;28;45398;-64
2022/01/12 10:54:49;;;;;;;;;72.50;48.75;;;;;7.63;57.63;103539.19;4925398;28;45340;-61
2022/01/12 10:57:36;;;;;;;;;71.25;50.75;;;;;7.67;57.45;103531.59;4922715;28;45493;-69
2022/01/12 11:00:19;;;;;;;;;65.75;49.25;;;;;7.66;56.68;103553.66;4917350;28;47170;-63
2022/01/12 11:02:50;;;;;;;;;60.75;45.50;;;;;7.51;57.30;103507.16;4930256;28;45570;-66
2022/01/12 11:05:17;;;;;;;;;69.25;50.50;;;;;7.71;57.13;103541.66;4939292;28;45399;-61
2022/01/12 11:07:42;;;;;;;;;57.50;35.00;;;;;7.73;56.53;103553.38;4943006;28;45059;-65
2022/01/12 11:10:10;;;;;;;;;65.75;49.50;;;;;7.77;56.73;103548.31;4951088;28;45492;-61
2022/01/12 11:12:36;;;;;;;;;65.25;50.25;;;;;7.73;56.65;103556.03;4939591;28;45433;-64
2022/01/12 11:15:09;;;;;;;;;69.75;49.75;;;;;7.74;57.17;103554.31;4940030;28;45343;-65
2022/01/12 11:17:38;;;;;;;;;59.50;45.00;;;;;7.72;56.35;103555.91;4933168;28;45422;-63
2022/01/12 11:20:03;;;;;;;;;62.75;48.50;;;;;7.75;57.00;103556.16;4945025;28;45695;-62
2022/01/12 11:22:48;;;;;;;;;59.75;44.50;;;;;7.81;56.88;103548.69;4931761;28;45172;-63
2022/01/12 11:25:19;;;;;;;;;63.50;45.75;;;;;7.85;57.23;103548.16;4929998;28;45248;-66
2022/01/12 11:27:45;;;;;;;;;62.00;42.25;;;;;7.87;57.05;103543.88;4947522;28;45377;-65
2022/01/12 11:30:21;;;;;;;;;54.50;45.25;;;;;7.86;56.62;103546.41;4947080;28;47074;-63
2022/01/12 11:32:58;;;;;;;;;56.25;45.25;;;;;7.76;55.87;103518.09;4947595;28;45134;-62
2022/01/12 11:35:29;;;;;;;;;60.25;44.00;;;;;7.97;55.60;103541.94;4946558;28;46174;-62
2022/01/12 11:37:59;;;;;;;;;61.00;42.00;;;;;7.96;56.22;103535.72;4943271;28;44884;-63
2022/01/12 11:40:35;;;;;;;;;60.25;45.25;;;;;8.00;55.92;103539.53;4945280;28;45434;-62
2022/01/12 11:43:00;;;;;;;;;56.00;48.00;;;;;8.00;56.20;103540.50;4950582;28;45169;-64
2022/01/12 11:45:26;;;;;;;;;65.25;49.25;;;;;7.62;55.05;103469.06;4940703;28;45589;-62
2022/01/12 11:47:51;;;;;;;;;58.50;41.25;;;;;8.05;55.51;103541.81;4939485;28;45269;-63
2022/01/12 11:50:17;;;;;;;;;58.25;45.50;;;;;8.09;56.10;103537.66;4940060;28;45961;-70
2022/01/12 11:52:43;;;;;;;;;55.25;44.25;;;;;8.00;55.33;103508.56;4946808;28;44948;-63
2022/01/12 11:55:14;;;;;;;;;50.75;38.00;;;;;7.98;54.98;103486.16;4926436;28;45502;-62
2022/01/12 11:57:45;;;;;;;;;64.00;43.00;;;;;8.15;55.46;103521.22;4935314;28;45482;-65
2022/01/12 12:00:12;;;;;;;;;62.00;47.00;;;;;8.16;55.03;103516.03;4935589;28;46440;-65
2022/01/12 12:02:41;;;;;;;;;53.50;44.25;;;;;8.18;54.92;103524.13;4923767;28;45643;-63
2022/01/12 12:05:13;;;;;;;;;59.25;45.50;;;;;8.14;55.51;103525.63;4919024;28;45382;-62
2022/01/12 12:08:04;;;;;;;;;60.25;48.25;;;;;8.11;55.40;103525.38;4929021;28;45537;-62
2022/01/12 12:10:36;;;;;;;;;57.75;46.75;;;;;8.11;55.13;103520.97;4921246;28;46579;-64
2022/01/12 12:13:03;;;;;;;;;62.75;46.25;;;;;8.17;55.07;103512.56;4923532;28;45495;-63
2022/01/12 12:15:29;;;;;;;;;65.25;48.00;;;;;7.79;55.19;103448.22;4928385;28;45490;-63
2022/01/12 12:18:00;;;;;;;;;68.25;50.75;;;;;8.18;55.01;103505.50;4933741;28;45661;-64
2022/01/12 12:20:25;;;;;;;;;57.75;45.00;;;;;8.20;55.93;103503.88;4925719;28;46236;-64
2022/01/12 12:22:51;;;;;;;;;57.75;42.50;;;;;8.20;55.39;103507.50;4916142;28;45766;-62
2022/01/12 12:25:18;;;;;;;;;79.75;59.00;;;;;8.26;55.20;103505.28;4928077;28;45481;-64
2022/01/12 12:27:49;;;;;;;;;68.75;49.25;;;;;8.29;55.40;103499.31;4934307;28;45770;-62
2022/01/12 12:30:17;;;;;;;;;55.75;44.50;;;;;8.33;55.42;103497.81;4932288;28;46447;-65
2022/01/12 12:32:45;;;;;;;;;55.75;44.75;;;;;8.18;54.70;103466.47;4933593;28;46166;-66
2022/01/12 12:35:18;;;;;;;;;63.25;44.00;;;;;8.37;54.97;103489.28;4934371;28;45398;-63
2022/01/12 12:37:46;;;;;;;;;55.50;44.25;;;;;8.36;55.45;103474.09;4932538;28;45563;-64
2022/01/12 12:40:14;;;;;;;;;52.00;41.25;;;;;8.43;54.92;103480.06;4934040;28;46598;-62